Aérodrome :
LOGIN :

S'inscrire | Disclaimer

   EN    FR    IT 

 










Légende :    VFR   VFR Marginal   IFR   IFR Intensif   IFR Très Intensif
Visi : 
Plafond : 
>= 8 km
>= 3000ft
5 à 8 km
1000 à 3000 ft
1500m à 5 km
500 à 1000 ft
800 à 1500m
200 à 500 ft
< 800m
< 200 ft
Symboles :   Orages  Brouillard  Fortes neiges  Fortes précipitations  Vent > 20 kt
SIGMETs :   Divers  Orages  Givrage  Turbulence  Onde Orograph.  Cendres Volcan.






- Altitude de l'aérodrome : 1363 ft


ETIC - Grafenwohr Army Air Field

DERNIER METAR :
  • 300456Z AUTO 24005KT 9999 -RA OVC006 10/09 A3009 RMK AO2 RAE41DZB41E49RAB51 SLP197 P0001 T00990088 $

METARs EXPIRÉS :
  • 300451Z AUTO 24006KT 9999 -RA OVC006 10/09 A3009 RMK AO2 RAE41DZB41E49RAB51 SLP197 $
  • 300356Z AUTO 24005KT 9999 -RA OVC006 09/08 A3009 RMK AO2 DZE11RAB11E22DZB22E31RAB31 SLP197 P0001 T00940083 $
  • 300341Z AUTO 24006KT 9999 -RA OVC006 09/08 A3009 RMK AO2 DZE11RAB11E22DZB22E31RAB31 SLP197 $
  • 300326Z AUTO 22006KT 9999 -DZ BKN005 OVC013 09/08 A3009 RMK AO2 DZE11RAB11E22DZB22 BKN V OVC SLP197 $
  • 300256Z AUTO 22004KT 9999 -DZ OVC006 09/08 A3008 RMK AO2 RAE41DZB41E42RAB42E47DZB47 SLP193 P0002 60004 T00910080 57013 $
  • 300226Z AUTO 21003KT 9000 -RA BR BKN006 OVC010 09/08 A3008 RMK AO2 CIG 006V009 SLP193 $

TAF TAF ETIC
Valide du 30 à 02h jusqu'au 31 à 08h UTC


300200Z 3002/3108 26009KT 8000 -SHRA BKN008 OVC020 QNH3009INS
TEMPO 3003/3006 6000 -SHRA BKN006 OVC012
BECMG 3007/3008 24012G18KT 8000 -SHRA OVC010 QNH3014INS
BECMG 3014/3015 VRB06KT 8000 -RA OVC010 QNH3019INS
BECMG 3022/3023 26012KT 8000 BR OVC010 QNH3026INS TX11/3009Z TN08/3018Z



MET'MAP, la Météo Aéronautique d'un coup d'oeil ! - Copyright ORBIFLY Décembre 2007 - Disclaimer

ORBIFLY MET'MAP TEAM :

Programmation & Développement : Alexandra Zaïnal
Sur une idée originale de : Baudouin d'Aumeries
Assistance à la programmation : Marc-Olivier Méhu
Soutien technique & logistique : Manuel Goepfert

Contact : metmap@orbifly.com




SOURCES & CREDITS :

   NOAA